Latest Weather Observations for Geelong Racecourse

IDV60901

Issued at 1:11 pm EDT Monday 8 February 2016 (issued every 10 minutes, with the page automatically refreshed every 10 minutes)

About weather observations | Map of Melbourne area stations | Latest observations for Melbourne area | Other Formats
Station Details ID: 087184 Name: GEELONG RACECOURSE Lat: -38.17 Lon: 144.38 Height: 12.9 m
Data from the previous 72 hours. | See also: Recent months at Geelong Racecourse
Date/Time
EDT
Tmp

°C
App
Tmp
°C
Dew
Point
°C
Rel
Hum
%
Delta-T

°C
Wind Press
QNH
hPa
Press
MSL
hPa
Rain
since
9 am
mm
Dir
 
Spd
km/h
Gust
km/h
Spd
kts
Gust
kts
08/01:00pm 22.0 19.5 13.4 58 4.9 S 19 28 10 15 1022.7 1022.7 0.0
08/12:30pm 21.9 19.0 13.0 57 5.1 S 20 32 11 17 1022.8 1022.8 0.0
08/12:00pm 21.6 18.8 13.2 59 4.8 S 20 32 11 17 1023.0 1023.0 0.0
08/11:30am 21.1 18.7 12.5 58 4.9 S 17 28 9 15 1023.0 1023.0 0.0
08/11:00am 21.8 19.0 13.2 58 4.9 S 20 30 11 16 1023.0 1023.0 0.0
08/10:30am 20.2 17.8 12.7 62 4.2 SSW 17 24 9 13 1022.9 1022.9 0.0
08/10:00am 20.3 18.6 13.7 66 3.8 SSW 15 20 8 11 1022.8 1022.8 0.0
08/09:30am 19.8 18.1 13.5 67 3.6 S 15 22 8 12 1022.7 1022.7 0.0
08/09:00am 19.6 18.8 14.0 70 3.2 SSW 11 15 6 8 1022.5 1022.5 0.0
08/08:30am 19.6 18.5 14.4 72 3.0 SSW 13 17 7 9 1022.2 1022.2 0.0
08/08:00am 18.3 18.9 15.2 82 1.8 WSW 6 7 3 4 1021.9 1021.9 0.0
08/07:30am 17.2 18.3 15.5 90 1.0 WSW 4 7 2 4 1021.7 1021.7 0.0
08/07:00am 16.8 17.4 15.3 91 0.9 WSW 6 7 3 4 1021.4 1021.4 0.0
08/06:30am 17.1 17.9 15.8 92 0.8 WSW 6 7 3 4 1021.1 1021.1 0.0
08/06:00am 17.1 17.5 15.4 90 1.0 WSW 7 9 4 5 1020.8 1020.8 0.0
08/05:30am 17.5 17.5 15.3 87 1.3 WSW 9 11 5 6 1020.5 1020.5 0.0
08/05:00am 17.0 17.0 14.3 84 1.5 WSW 7 9 4 5 1020.4 1020.4 0.0
08/04:30am 18.0 17.8 14.7 81 1.9 SW 9 13 5 7 1020.4 1020.4 0.0
08/04:00am 17.4 18.1 15.6 89 1.1 SSW 6 9 3 5 1020.3 1020.3 0.0
08/03:30am 17.4 18.1 15.7 90 1.0 WSW 6 7 3 4 1020.3 1020.3 0.0
08/03:00am 17.2 17.6 15.4 89 1.0 WSW 7 11 4 6 1020.3 1020.3 0.0
08/02:30am 16.9 16.9 15.2 90 1.0 SW 9 13 5 7 1020.5 1020.5 0.0
08/02:00am 17.4 17.6 15.7 90 1.0 SW 9 13 5 7 1020.6 1020.6 0.0
08/01:30am 17.7 18.1 16.4 92 0.8 SW 9 13 5 7 1020.6 1020.6 0.0
08/01:00am 17.9 17.7 16.6 92 0.8 SSW 13 17 7 9 1020.6 1020.6 0.0
08/12:30am 18.1 17.9 16.8 92 0.8 SSW 13 19 7 10 1020.3 1020.3 0.0
08/12:00am 18.4 18.4 17.1 92 0.8 SSW 13 19 7 10 1020.2 1020.2 0.0
 
Date/Time
EDT
Tmp

°C
App
Tmp
°C
Dew
Point
°C
Rel
Hum
%
Delta-T

°C
Wind Press
QNH
hPa
Press
MSL
hPa
Rain
since
9 am
mm
Dir
 
Spd
km/h
Gust
km/h
Spd
kts
Gust
kts
07/11:30pm 18.5 18.1 17.2 92 0.8 SSW 15 20 8 11 1020.2 1020.2 0.0
07/11:00pm 18.6 18.3 17.3 92 0.8 S 15 19 8 10 1020.0 1020.0 0.0
07/10:30pm 18.6 18.6 17.3 92 0.8 S 13 19 7 10 1019.9 1019.9 0.0
07/10:00pm 18.7 18.8 17.4 92 0.8 S 13 17 7 9 1019.6 1019.6 0.0
07/09:30pm 18.9 18.7 17.6 92 0.8 S 15 20 8 11 1019.3 1019.3 0.0
07/09:00pm 19.1 19.3 17.6 91 0.9 S 13 19 7 10 1019.0 1019.0 0.0
07/08:30pm 19.4 18.4 17.5 89 1.2 S 19 28 10 15 1018.5 1018.5 0.0
07/08:00pm 20.0 17.6 17.4 85 1.6 S 26 33 14 18 1018.3 1018.3 0.0
07/07:30pm 20.6 18.6 17.4 82 2.0 S 24 37 13 20 1017.8 1017.8 0.0
07/07:00pm 21.3 18.8 17.1 77 2.6 S 26 35 14 19 1017.2 1017.2 0.0
07/06:30pm 21.6 19.1 17.0 75 2.8 S 26 37 14 20 1016.9 1016.9 0.0
07/06:00pm 22.4 19.7 16.7 70 3.5 S 26 35 14 19 1016.8 1016.8 0.0
07/05:30pm 22.8 19.6 16.4 67 3.9 S 28 35 15 19 1016.5 1016.5 0.0
07/05:00pm 23.5 19.5 15.3 60 4.9 S 30 41 16 22 1016.5 1016.5 0.0
07/04:30pm 23.5 20.1 15.8 62 4.7 S 28 41 15 22 1016.2 1016.2 0.0
07/04:00pm 23.9 20.5 16.7 64 4.4 S 30 39 16 21 1016.4 1016.4 0.0
07/03:30pm 24.5 21.4 15.7 58 5.3 S 26 33 14 18 1016.3 1016.3 0.0
07/03:00pm 25.8 23.8 16.4 56 5.8 S 22 33 12 18 1016.3 1016.3 0.0
07/02:30pm 25.2 22.9 15.8 56 5.7 S 22 28 12 15 1016.5 1016.5 0.0
07/02:00pm 25.5 23.9 16.4 57 5.6 S 20 30 11 16 1016.7 1016.7 0.0
07/01:30pm 25.1 23.4 16.3 58 5.4 SSE 20 26 11 14 1016.9 1016.9 0.0
07/01:00pm 25.4 24.1 16.8 59 5.3 SSE 19 26 10 14 1017.0 1017.0 0.0
07/12:30pm 25.5 25.7 17.7 62 4.9 SE 13 22 7 12 1016.9 1016.9 0.0
07/12:00pm 25.1 25.7 17.6 63 4.7 SSE 11 19 6 10 1016.9 1016.9 0.0
07/11:30am 24.5 26.0 18.0 67 4.1 SE 7 13 4 7 1017.1 1017.1 0.0
07/11:00am 23.5 24.6 17.9 71 3.5 S 9 15 5 8 1017.3 1017.3 0.0
07/10:30am 22.9 23.9 18.7 77 2.7 SSE 11 17 6 9 1017.6 1017.6 0.0
07/10:00am 22.1 22.8 18.9 82 2.0 S 13 17 7 9 1017.4 1017.4 0.0
07/09:30am 20.8 21.8 19.5 92 0.8 SSW 13 19 7 10 1017.2 1017.2 0.0
07/09:00am 19.7 19.9 18.5 93 0.7 SSW 15 19 8 10 1017.2 1017.2 0.0
07/08:30am 19.1 19.0 17.9 93 0.7 SSW 15 20 8 11 1016.9 1016.9 0.0
07/08:00am 17.8 19.3 16.7 93 0.7 S 4 6 2 3 1016.4 1016.4 0.0
07/07:30am 16.7 17.8 15.6 93 0.6 NW 4 6 2 3 1015.8 1015.8 0.0
07/07:00am 16.4 17.4 15.3 93 0.6 NNW 4 7 2 4 1015.4 1015.4 0.0
07/06:30am 16.6 18.0 15.5 93 0.6 WNW 2 6 1 3 1015.0 1015.0 0.0
07/06:00am 16.7 18.2 15.6 93 0.6 W 2 2 1 1 1014.7 1014.7 0.0
07/05:30am 16.9 18.4 15.8 93 0.6 W 2 2 1 1 1014.5 1014.5 0.0
07/05:00am 17.3 18.2 16.0 92 0.8 W 6 6 3 3 1014.5 1014.5 0.0
07/04:30am 17.5 18.9 16.4 93 0.7 WNW 4 6 2 3 1014.5 1014.5 0.0
07/04:00am 17.6 19.4 16.5 93 0.7 WNW 2 6 1 3 1014.6 1014.6 0.0
07/03:30am 18.0 20.0 16.9 93 0.7 WNW 2 4 1 2 1014.6 1014.6 0.0
07/03:00am 17.8 19.7 16.7 93 0.7 W 2 4 1 2 1014.7 1014.7 0.0
07/02:30am 18.3 20.3 17.0 92 0.8 W 2 2 1 1 1014.7 1014.7 0.0
07/02:00am 18.7 20.9 17.4 92 0.8 W 2 2 1 1 1014.8 1014.8 0.0
07/01:30am 19.0 20.9 17.7 92 0.8 W 4 4 2 2 1015.0 1015.0 0.0
07/01:00am 19.4 21.5 18.1 92 0.8 SW 4 6 2 3 1015.1 1015.1 0.0
07/12:30am 19.4 21.4 17.9 91 0.9 SW 4 4 2 2 1015.3 1015.3 0.0
07/12:00am 19.9 21.7 18.4 91 0.9 SW 6 7 3 4 1015.3 1015.3 0.0
 
Date/Time
EDT
Tmp

°C
App
Tmp
°C
Dew
Point
°C
Rel
Hum
%
Delta-T

°C
Wind Press
QNH
hPa
Press
MSL
hPa
Rain
since
9 am
mm
Dir
 
Spd
km/h
Gust
km/h
Spd
kts
Gust
kts
06/11:30pm 20.2 22.0 18.7 91 0.9 SSW 7 9 4 5 1015.4 1015.4 0.0
06/11:00pm 20.4 21.7 18.5 89 1.2 SSW 9 11 5 6 1015.4 1015.4 0.0
06/10:30pm 20.6 21.5 18.4 87 1.4 SSW 11 15 6 8 1015.3 1015.3 0.0
06/10:00pm 20.7 21.8 17.9 84 1.7 SSW 9 11 5 6 1015.2 1015.2 0.0
06/09:30pm 21.2 21.8 17.8 81 2.1 S 11 15 6 8 1014.9 1014.9 0.0
06/09:00pm 21.7 21.5 17.7 78 2.5 S 15 19 8 10 1014.6 1014.6 0.0
06/08:30pm 22.4 21.6 17.1 72 3.3 S 17 24 9 13 1014.4 1014.4 0.0
06/08:00pm 23.4 21.9 16.7 66 4.1 S 20 28 11 15 1014.1 1014.1 0.0
06/07:30pm 24.2 22.5 16.2 61 4.9 S 20 32 11 17 1013.8 1013.8 0.0
06/07:00pm 25.0 22.9 16.2 58 5.4 S 22 30 12 16 1013.5 1013.5 0.0
06/06:30pm 25.9 24.2 16.2 55 6.0 S 20 30 11 16 1013.4 1013.4 0.0
06/06:00pm 27.9 25.7 15.9 48 7.4 S 22 28 12 15 1013.2 1013.2 0.0
06/05:30pm 30.6 29.5 14.3 37 9.9 SE 13 22 7 12 1013.0 1013.0 0.0
06/05:00pm 30.5 27.8 12.9 34 10.4 NE 19 28 10 15 1012.7 1012.7 0.0
06/04:30pm 30.1 26.6 12.1 33 10.5 ENE 22 32 12 17 1012.9 1012.9 0.0
06/04:00pm 30.5 27.7 13.3 35 10.3 ENE 20 30 11 16 1013.3 1013.3 0.0
06/03:30pm 30.4 28.0 13.7 36 10.0 ENE 19 24 10 13 1013.7 1013.7 0.0
06/03:00pm 30.1 28.1 13.8 37 9.8 NE 17 22 9 12 1014.1 1014.1 0.0
06/02:30pm 29.6 27.7 14.2 39 9.3 NE 17 22 9 12 1014.4 1014.4 0.0
06/02:00pm 29.1 27.7 14.5 41 8.8 ENE 15 19 8 10 1014.8 1014.8 0.0
06/01:30pm 28.6 27.5 14.4 41 8.6 NE 13 17 7 9 1015.2 1015.2 0.0
06/01:00pm 27.7 27.2 16.0 49 7.2 NE 13 17 7 9 1015.6 1015.6 0.0
06/12:30pm 26.2 25.8 15.3 51 6.6 ENE 11 15 6 8 1016.0 1016.0 0.0
06/12:00pm 25.1 25.1 15.1 53 6.0 NE 9 13 5 7 1016.6 1016.6 0.0
06/11:30am 24.0 24.7 16.0 61 4.9 NE 7 17 4 9 1017.0 1017.0 0.0
06/11:00am 23.1 23.3 15.7 63 4.4 NE 9 13 5 7 1017.1 1017.1 0.0
06/10:30am 22.3 22.6 15.9 67 3.9 NE 9 13 5 7 1017.3 1017.3 0.0
06/10:00am 22.0 22.7 16.1 69 3.6 NE 7 11 4 6 1017.3 1017.3 0.0
06/09:30am 21.9 23.4 16.6 72 3.2 ENE 4 9 2 5 1017.3 1017.3 0.0
06/09:00am 21.2 23.9 18.6 85 1.6 E 2 6 1 3 1017.4 1017.4 0.0
06/08:30am 18.5 20.6 17.3 93 0.7 SSW 2 2 1 1 1017.3 1017.3 0.0
06/08:00am 16.9 18.1 15.9 94 0.6 WSW 4 4 2 2 1017.2 1017.2 0.0
06/07:30am 15.7 16.8 14.7 94 0.6 S 2 4 1 2 1017.0 1017.0 0.0
06/07:00am 14.9 16.1 13.9 94 0.6 CALM 0 0 0 0 1016.6 1016.6 0.0
06/06:30am 15.1 15.6 14.0 93 0.6 SSE 4 6 2 3 1016.4 1016.4 0.0
06/06:00am 14.9 15.0 13.8 93 0.6 S 6 7 3 4 1016.2 1016.2 0.0
06/05:30am 14.8 15.2 13.7 93 0.6 S 4 6 2 3 1016.1 1016.1 0.0
06/05:00am 15.3 15.5 14.2 93 0.6 S 6 6 3 3 1016.0 1016.0 0.0
06/04:30am 15.5 15.8 14.4 93 0.6 S 6 6 3 3 1016.1 1016.1 0.0
06/04:00am 15.8 16.1 14.5 92 0.7 SSE 6 7 3 4 1016.1 1016.1 0.0
06/03:30am 16.3 16.6 15.0 92 0.8 S 7 9 4 5 1016.3 1016.3 0.0
06/03:00am 16.6 17.0 15.3 92 0.8 SSE 7 11 4 6 1016.6 1016.6 0.0
06/02:30am 16.6 16.8 14.8 89 1.0 SSE 7 13 4 7 1016.8 1016.8 0.0
06/02:00am 16.3 16.8 15.0 92 0.7 S 6 9 3 5 1017.1 1017.1 0.0
06/01:30am 16.5 17.0 15.0 91 0.9 SSE 6 9 3 5 1017.3 1017.3 0.0
06/01:00am 17.1 17.7 15.8 92 0.8 SSE 7 9 4 5 1017.6 1017.6 0.0
06/12:30am 17.4 18.4 15.4 88 1.2 SSE 4 6 2 3 1018.0 1018.0 0.0
06/12:00am 18.2 18.5 15.1 82 1.8 SE 7 11 4 6 1018.0 1018.0 0.0
 
Date/Time
EDT
Tmp

°C
App
Tmp
°C
Dew
Point
°C
Rel
Hum
%
Delta-T

°C
Wind Press
QNH
hPa
Press
MSL
hPa
Rain
since
9 am
mm
Dir
 
Spd
km/h
Gust
km/h
Spd
kts
Gust
kts
05/11:30pm 18.1 18.5 14.8 81 1.9 SSE 6 6 3 3 1018.1 1018.1 0.0
05/11:00pm 18.5 18.9 14.8 79 2.1 SE 6 7 3 4 1018.2 1018.2 0.0
05/10:30pm 19.1 18.9 14.8 76 2.5 SE 9 13 5 7 1018.3 1018.3 0.0
05/10:00pm 19.5 18.7 15.0 75 2.6 SE 13 20 7 11 1018.1 1018.1 0.0
05/09:30pm 19.8 18.6 15.0 74 2.8 SE 15 22 8 12 1017.9 1017.9 0.0
05/09:00pm 20.1 18.2 15.1 73 2.9 SE 19 32 10 17 1017.8 1017.8 0.0
05/08:30pm 20.5 18.9 15.1 71 3.2 SE 17 26 9 14 1017.6 1017.6 0.0
05/08:00pm 21.2 19.1 15.1 68 3.6 SE 20 32 11 17 1017.2 1017.2 0.0
05/07:30pm 21.8 18.8 14.9 65 4.1 SE 24 35 13 19 1016.8 1016.8 0.0
05/07:00pm 22.4 19.8 15.0 63 4.4 SE 22 33 12 18 1016.6 1016.6 0.0
05/06:30pm 22.9 20.0 15.2 62 4.6 SSE 24 35 13 19 1016.7 1016.7 0.0
05/06:00pm 23.9 21.5 15.4 59 5.1 SSE 22 33 12 18 1016.9 1016.9 0.0
05/05:30pm 23.7 20.8 15.2 59 5.1 SSE 24 35 13 19 1017.0 1017.0 0.0
05/05:00pm 23.9 20.6 14.9 57 5.4 SSE 26 39 14 21 1017.4 1017.4 0.0
05/04:30pm 24.5 21.5 14.9 55 5.7 SSE 24 33 13 18 1017.6 1017.6 0.0
05/04:00pm 24.4 20.9 14.5 54 5.9 SSE 26 35 14 19 1017.9 1017.9 0.0
05/03:30pm 24.7 21.2 14.5 53 6.1 SSE 26 39 14 21 1018.2 1018.2 0.0
05/03:00pm 23.9 20.4 14.6 56 5.5 SSE 26 35 14 19 1018.5 1018.5 0.0
05/02:30pm 24.1 20.8 15.1 57 5.4 SSE 26 39 14 21 1018.9 1018.9 0.0
05/02:00pm 23.6 20.8 15.4 60 4.9 SSE 24 35 13 19 1019.2 1019.2 0.0
05/01:30pm 23.6 20.9 14.6 57 5.3 SSE 22 32 12 17 1019.6 1019.6 0.0

Latest Capital City Observations: Canberra | Sydney | Melbourne | Brisbane | Adelaide | Perth | Hobart | Darwin

Other Formats:

Comma delimited format used in spreadsheet applications
http://www.bom.gov.au/fwo/IDV60901/IDV60901.94857.axf

JavaScript Object Notation format (JSON) in row-major order
http://www.bom.gov.au/fwo/IDV60901/IDV60901.94857.json